CDT,Max TemperatureF,Mean TemperatureF,Min TemperatureF,Max Dew PointF,MeanDew PointF,Min DewpointF,Max Humidity, Mean Humidity, Min Humidity, Max Sea Level PressureIn, Mean Sea Level PressureIn, Min Sea Level PressureIn, Max VisibilityMiles, Mean VisibilityMiles, Min VisibilityMiles, Max Wind SpeedMPH, Mean Wind SpeedMPH, Max Gust SpeedMPH,PrecipitationIn, CloudCover, Events, WindDirDegrees
2012-5-1,69,54,41,61,55,41,100,85,56,29.95,29.82,29.76,10,10,7,17,9,23,0.00,5,,142
2012-5-2,81,68,57,70,61,57,100,93,48,29.83,29.72,29.58,10,7,1,23,10,31,0.64,6,Rain-Thunderstorm,185
2012-5-3,80,71,60,72,66,61,100,98,61,29.87,29.79,29.75,10,7,1,14,4,17,2.00,7,Rain-Hail-Thunderstorm,99
2012-5-4,64,58,52,61,56,52,100,92,72,30.05,29.99,29.88,10,9,3,16,7,,0.12,7,Rain-Thunderstorm,99
2012-5-5,63,56,48,60,54,48,100,99,87,30.11,30.03,29.97,10,9,2,18,9,21,0.18,6,Rain-Thunderstorm,93
2012-5-6,64,57,50,63,55,50,100,100,94,30.09,29.96,29.88,10,7,1,20,10,24,0.85,8,Rain-Thunderstorm,89
2012-5-7,71,60,48,59,51,46,100,83,43,30.88,29.94,29.85,10,8,3,16,6,22,0.00,6,,299
2012-5-8,64,51,42,54,48,42,100,88,63,29.89,29.87,29.84,10,10,10,16,7,,0.03,4,Rain,284
2012-5-9,64,52,41,48,42,36,100,75,37,30.01,29.96,29.90,10,10,10,13,8,16,0.00,5,,317
2012-5-10,69,50,32,46,36,30,100,83,27,30.02,29.98,29.93,10,5,0,10,3,,0.00,0,Fog,224
2012-5-11,80,62,44,60,50,39,100,67,45,30.16,30.00,29.93,10,10,10,18,10,26,0.00,2,,208
2012-5-12,69,56,40,50,42,33,100,62,28,30.32,30.26,30.18,10,10,10,10,6,16,0.00,2,,336
2012-5-13,73,53,33,50,37,32,100,86,23,30.30,30.25,30.10,10,4,0,10,1,,0.00,0,Fog-Rain,269
2012-5-14,79,58,39,45,42,40,99,53,26,30.09,30.01,29.90,10,10,9,17,5,23,0.00,0,,224
2012-5-15,79,63,48,50,44,40,81,44,28,30.01,29.86,29.81,10,10,10,18,12,24,0.00,3,,281
2012-5-16,69,52,34,48,40,33,100,67,27,30.15,30.10,30.04,10,10,10,9,4,,0.00,0,,294
2012-5-17,74,54,35,46,40,35,100,68,31,30.15,30.05,29.94,10,8,2,18,5,28,0.00,3,,148
2012-5-18,84,68,53,53,45,38,90,43,27,29.97,29.92,29.87,10,10,4,15,6,23,0.00,0,Rain,161
2012-5-19,87,66,46,61,54,46,100,71,35,29.96,29.93,29.87,10,6,2,20,5,28,0.00,1,Rain,156
2012-5-20,82,66,52,63,56,46,100,74,48,30.12,29.97,29.85,10,10,9,24,12,32,0.00,6,,260
2012-5-21,72,53,35,50,42,36,100,75,33,30.23,30.19,30.13,10,8,0,15,8,24,0.00,0,Fog,315
2012-5-22,75,56,36,48,41,37,100,76,29,30.13,30.05,29.86,10,7,1,14,5,,0.00,0,,128
2012-5-23,80,65,50,52,46,43,83,49,28,29.85,29.73,29.60,10,10,9,21,10,31,0.00,5,,149
2012-5-24,88,74,59,68,57,45,100,67,31,29.65,29.53,29.34,10,8,2,24,13,40,0.57,4,Rain-Thunderstorm,186
2012-5-25,74,61,49,62,56,50,100,86,50,30.16,29.99,29.67,10,10,5,14,7,23,0.22,3,Rain,272
2012-5-26,66,62,58,66,62,58,100,100,92,30.19,30.11,29.97,10,8,0,28,8,33,0.86,6,Fog-Rain-Thunderstorm,100
2012-5-27,89,76,63,72,67,63,100,76,52,29.98,29.81,29.70,10,10,10,16,9,,0.00,3,Rain,142
2012-5-28,82,74,62,69,64,52,84,71,57,29.76,29.67,29.62,10,10,10,17,8,29,0.00,1,Rain-Thunderstorm,220
2012-5-29,67,60,53,52,49,46,89,65,49,29.86,29.81,29.76,10,10,10,22,10,30,0.00,3,,261
2012-5-30,60,55,50,50,46,42,100,72,55,29.99,29.95,29.86,10,10,10,15,9,,0.00,5,Rain,318
2012-5-31,57,54,50,50,45,43,100,72,59,30.01,29.99,29.98,10,10,10,6,3,,0.00,7,,53